sensor_id;sensor_type;location;lat;lon;timestamp;P1;durP1;ratioP1;P2;durP2;ratioP2
67274;SDS011;55463;52.324;5.122;2024-03-23T00:52:57;29.23;;;8.38;;
67274;SDS011;55463;52.324;5.122;2024-03-23T00:55:23;36.45;;;7.65;;
67274;SDS011;55463;52.324;5.122;2024-03-23T00:57:49;31.58;;;7.70;;
67274;SDS011;55463;52.324;5.122;2024-03-23T01:00:14;27.85;;;7.75;;
67274;SDS011;55463;52.324;5.122;2024-03-23T01:02:40;27.77;;;6.70;;
67274;SDS011;55463;52.324;5.122;2024-03-23T01:05:06;33.70;;;7.90;;
67274;SDS011;55463;52.324;5.122;2024-03-23T01:07:31;27.90;;;7.55;;
67274;SDS011;55463;52.324;5.122;2024-03-23T01:09:57;29.02;;;7.35;;
67274;SDS011;55463;52.324;5.122;2024-03-23T01:12:22;35.13;;;7.90;;
67274;SDS011;55463;52.324;5.122;2024-03-23T01:14:47;38.33;;;7.65;;
67274;SDS011;55463;52.324;5.122;2024-03-23T01:17:13;33.72;;;9.00;;
67274;SDS011;55463;52.324;5.122;2024-03-23T01:19:38;35.30;;;7.65;;
67274;SDS011;55463;52.324;5.122;2024-03-23T01:22:04;37.60;;;8.18;;
67274;SDS011;55463;52.324;5.122;2024-03-23T01:24:30;34.00;;;8.13;;
67274;SDS011;55463;52.324;5.122;2024-03-23T01:26:55;31.65;;;7.28;;
67274;SDS011;55463;52.324;5.122;2024-03-23T01:29:20;26.80;;;7.13;;
67274;SDS011;55463;52.324;5.122;2024-03-23T01:31:46;34.85;;;7.63;;
67274;SDS011;55463;52.324;5.122;2024-03-23T01:34:11;31.95;;;7.38;;
67274;SDS011;55463;52.324;5.122;2024-03-23T01:36:37;37.75;;;7.63;;
67274;SDS011;55463;52.324;5.122;2024-03-23T01:39:03;25.00;;;7.78;;
67274;SDS011;55463;52.324;5.122;2024-03-23T01:41:28;34.05;;;6.68;;
67274;SDS011;55463;52.324;5.122;2024-03-23T01:43:54;42.28;;;7.75;;
67274;SDS011;55463;52.324;5.122;2024-03-23T01:46:21;29.98;;;8.05;;
67274;SDS011;55463;52.324;5.122;2024-03-23T01:48:47;25.52;;;7.20;;
67274;SDS011;55463;52.324;5.122;2024-03-23T01:51:13;28.75;;;7.57;;
67274;SDS011;55463;52.324;5.122;2024-03-23T01:53:39;35.22;;;7.32;;
67274;SDS011;55463;52.324;5.122;2024-03-23T01:56:04;36.17;;;7.25;;
67274;SDS011;55463;52.324;5.122;2024-03-23T01:58:30;27.00;;;6.90;;
67274;SDS011;55463;52.324;5.122;2024-03-23T02:00:57;22.55;;;6.28;;
67274;SDS011;55463;52.324;5.122;2024-03-23T02:03:26;21.88;;;6.70;;
67274;SDS011;55463;52.324;5.122;2024-03-23T02:05:52;29.85;;;7.32;;
67274;SDS011;55463;52.324;5.122;2024-03-23T02:08:19;36.60;;;7.07;;
67274;SDS011;55463;52.324;5.122;2024-03-23T02:10:46;27.65;;;7.53;;
67274;SDS011;55463;52.324;5.122;2024-03-23T02:13:12;27.65;;;7.45;;
67274;SDS011;55463;52.324;5.122;2024-03-23T02:15:39;29.33;;;7.57;;
67274;SDS011;55463;52.324;5.122;2024-03-23T02:18:04;25.30;;;5.70;;
67274;SDS011;55463;52.324;5.122;2024-03-23T02:20:32;25.40;;;6.35;;
67274;SDS011;55463;52.324;5.122;2024-03-23T02:22:57;31.48;;;6.80;;
67274;SDS011;55463;52.324;5.122;2024-03-23T02:25:22;26.77;;;6.00;;
67274;SDS011;55463;52.324;5.122;2024-03-23T02:27:48;30.65;;;5.88;;
67274;SDS011;55463;52.324;5.122;2024-03-23T02:30:13;26.20;;;5.80;;
67274;SDS011;55463;52.324;5.122;2024-03-23T02:32:38;26.85;;;6.05;;
67274;SDS011;55463;52.324;5.122;2024-03-23T02:35:04;22.67;;;5.80;;
67274;SDS011;55463;52.324;5.122;2024-03-23T02:37:30;24.02;;;5.38;;
67274;SDS011;55463;52.324;5.122;2024-03-23T02:39:55;33.45;;;5.68;;
67274;SDS011;55463;52.324;5.122;2024-03-23T02:42:20;28.00;;;5.88;;
67274;SDS011;55463;52.324;5.122;2024-03-23T02:44:46;21.63;;;5.32;;
67274;SDS011;55463;52.324;5.122;2024-03-23T02:47:11;24.85;;;4.68;;
67274;SDS011;55463;52.324;5.122;2024-03-23T02:49:37;35.03;;;6.30;;
67274;SDS011;55463;52.324;5.122;2024-03-23T02:52:02;32.08;;;6.35;;
67274;SDS011;55463;52.324;5.122;2024-03-23T02:54:28;25.55;;;5.18;;
67274;SDS011;55463;52.324;5.122;2024-03-23T02:56:53;19.42;;;4.82;;
67274;SDS011;55463;52.324;5.122;2024-03-23T02:59:19;22.70;;;4.88;;
67274;SDS011;55463;52.324;5.122;2024-03-23T03:01:44;17.73;;;4.25;;
67274;SDS011;55463;52.324;5.122;2024-03-23T03:04:09;22.92;;;4.57;;
67274;SDS011;55463;52.324;5.122;2024-03-23T03:06:35;23.52;;;3.95;;
67274;SDS011;55463;52.324;5.122;2024-03-23T03:09:00;16.02;;;4.50;;
67274;SDS011;55463;52.324;5.122;2024-03-23T03:11:25;17.55;;;3.42;;
67274;SDS011;55463;52.324;5.122;2024-03-23T03:13:51;16.38;;;3.45;;
67274;SDS011;55463;52.324;5.122;2024-03-23T03:16:17;20.92;;;3.38;;
67274;SDS011;55463;52.324;5.122;2024-03-23T03:18:42;19.42;;;3.63;;
67274;SDS011;55463;52.324;5.122;2024-03-23T03:21:08;18.27;;;3.00;;
67274;SDS011;55463;52.324;5.122;2024-03-23T03:23:39;16.48;;;3.03;;
67274;SDS011;55463;52.324;5.122;2024-03-23T03:26:05;21.10;;;3.55;;
67274;SDS011;55463;52.324;5.122;2024-03-23T03:28:31;26.10;;;3.33;;
67274;SDS011;55463;52.324;5.122;2024-03-23T03:30:58;12.10;;;2.72;;
67274;SDS011;55463;52.324;5.122;2024-03-23T03:33:24;12.50;;;3.00;;
67274;SDS011;55463;52.324;5.122;2024-03-23T03:35:49;21.48;;;4.55;;
67274;SDS011;55463;52.324;5.122;2024-03-23T03:38:16;15.27;;;3.13;;
67274;SDS011;55463;52.324;5.122;2024-03-23T03:40:42;14.20;;;3.00;;
67274;SDS011;55463;52.324;5.122;2024-03-23T03:43:07;16.77;;;2.85;;
67274;SDS011;55463;52.324;5.122;2024-03-23T03:45:32;13.60;;;2.83;;
67274;SDS011;55463;52.324;5.122;2024-03-23T03:47:58;16.13;;;3.22;;
67274;SDS011;55463;52.324;5.122;2024-03-23T03:50:24;12.63;;;2.70;;
67274;SDS011;55463;52.324;5.122;2024-03-23T03:52:50;16.50;;;2.60;;
67274;SDS011;55463;52.324;5.122;2024-03-23T03:55:15;12.40;;;2.40;;
67274;SDS011;55463;52.324;5.122;2024-03-23T03:57:41;12.90;;;2.80;;
67274;SDS011;55463;52.324;5.122;2024-03-23T04:00:07;12.57;;;2.80;;
67274;SDS011;55463;52.324;5.122;2024-03-23T04:02:36;13.18;;;2.50;;
67274;SDS011;55463;52.324;5.122;2024-03-23T04:05:05;18.35;;;3.95;;
67274;SDS011;55463;52.324;5.122;2024-03-23T04:07:31;13.07;;;2.45;;
67274;SDS011;55463;52.324;5.122;2024-03-23T04:09:56;7.88;;;2.58;;
67274;SDS011;55463;52.324;5.122;2024-03-23T04:12:21;12.88;;;2.78;;
67274;SDS011;55463;52.324;5.122;2024-03-23T04:14:48;15.10;;;2.83;;
67274;SDS011;55463;52.324;5.122;2024-03-23T04:17:13;9.63;;;2.53;;
67274;SDS011;55463;52.324;5.122;2024-03-23T04:19:38;14.50;;;2.60;;
67274;SDS011;55463;52.324;5.122;2024-03-23T04:22:04;15.15;;;3.70;;
67274;SDS011;55463;52.324;5.122;2024-03-23T04:24:30;9.50;;;2.65;;
67274;SDS011;55463;52.324;5.122;2024-03-23T04:26:55;18.48;;;3.83;;
67274;SDS011;55463;52.324;5.122;2024-03-23T04:29:20;12.60;;;2.30;;
67274;SDS011;55463;52.324;5.122;2024-03-23T04:31:46;10.75;;;2.35;;
67274;SDS011;55463;52.324;5.122;2024-03-23T04:34:12;11.25;;;2.58;;
67274;SDS011;55463;52.324;5.122;2024-03-23T04:36:38;10.98;;;2.50;;
67274;SDS011;55463;52.324;5.122;2024-03-23T04:39:03;19.17;;;2.53;;
67274;SDS011;55463;52.324;5.122;2024-03-23T04:41:29;21.75;;;4.00;;
67274;SDS011;55463;52.324;5.122;2024-03-23T04:43:54;17.52;;;2.60;;
67274;SDS011;55463;52.324;5.122;2024-03-23T04:46:20;8.48;;;2.55;;
67274;SDS011;55463;52.324;5.122;2024-03-23T04:48:45;17.98;;;2.83;;
67274;SDS011;55463;52.324;5.122;2024-03-23T04:51:19;12.73;;;2.42;;
67274;SDS011;55463;52.324;5.122;2024-03-23T04:53:46;17.63;;;3.30;;
67274;SDS011;55463;52.324;5.122;2024-03-23T04:56:13;15.35;;;2.75;;
67274;SDS011;55463;52.324;5.122;2024-03-23T04:58:38;11.35;;;2.50;;
67274;SDS011;55463;52.324;5.122;2024-03-23T05:01:04;16.33;;;2.67;;
67274;SDS011;55463;52.324;5.122;2024-03-23T05:03:29;13.80;;;2.38;;
67274;SDS011;55463;52.324;5.122;2024-03-23T05:05:54;19.45;;;2.63;;
67274;SDS011;55463;52.324;5.122;2024-03-23T05:08:20;14.23;;;2.53;;
67274;SDS011;55463;52.324;5.122;2024-03-23T05:10:45;12.52;;;2.60;;
67274;SDS011;55463;52.324;5.122;2024-03-23T05:13:11;14.00;;;2.55;;
67274;SDS011;55463;52.324;5.122;2024-03-23T05:15:37;10.40;;;2.25;;
67274;SDS011;55463;52.324;5.122;2024-03-23T05:18:03;12.70;;;2.50;;
67274;SDS011;55463;52.324;5.122;2024-03-23T05:20:30;19.15;;;2.92;;
67274;SDS011;55463;52.324;5.122;2024-03-23T05:22:56;13.48;;;2.70;;
67274;SDS011;55463;52.324;5.122;2024-03-23T05:25:21;8.27;;;2.38;;
67274;SDS011;55463;52.324;5.122;2024-03-23T05:27:47;14.15;;;2.60;;
67274;SDS011;55463;52.324;5.122;2024-03-23T05:30:13;11.25;;;2.22;;
67274;SDS011;55463;52.324;5.122;2024-03-23T05:32:39;11.70;;;2.40;;
67274;SDS011;55463;52.324;5.122;2024-03-23T05:35:06;8.85;;;2.65;;
67274;SDS011;55463;52.324;5.122;2024-03-23T05:37:33;10.32;;;2.70;;
67274;SDS011;55463;52.324;5.122;2024-03-23T05:39:59;10.88;;;2.42;;
67274;SDS011;55463;52.324;5.122;2024-03-23T05:42:25;11.82;;;2.65;;
67274;SDS011;55463;52.324;5.122;2024-03-23T05:44:50;12.70;;;3.47;;
67274;SDS011;55463;52.324;5.122;2024-03-23T05:47:15;18.35;;;3.35;;
67274;SDS011;55463;52.324;5.122;2024-03-23T05:49:41;18.50;;;2.80;;
67274;SDS011;55463;52.324;5.122;2024-03-23T05:52:08;10.93;;;2.72;;
67274;SDS011;55463;52.324;5.122;2024-03-23T05:54:33;10.38;;;2.40;;
67274;SDS011;55463;52.324;5.122;2024-03-23T05:56:59;13.27;;;2.80;;
67274;SDS011;55463;52.324;5.122;2024-03-23T05:59:24;22.85;;;3.13;;
67274;SDS011;55463;52.324;5.122;2024-03-23T06:01:50;17.67;;;3.20;;
67274;SDS011;55463;52.324;5.122;2024-03-23T06:04:15;14.88;;;2.70;;
67274;SDS011;55463;52.324;5.122;2024-03-23T06:06:41;12.40;;;2.50;;
67274;SDS011;55463;52.324;5.122;2024-03-23T06:09:07;22.15;;;3.17;;
67274;SDS011;55463;52.324;5.122;2024-03-23T06:11:32;13.32;;;2.92;;
67274;SDS011;55463;52.324;5.122;2024-03-23T06:13:57;11.93;;;3.30;;
67274;SDS011;55463;52.324;5.122;2024-03-23T06:16:23;12.73;;;3.45;;
67274;SDS011;55463;52.324;5.122;2024-03-23T06:18:52;12.48;;;2.70;;
67274;SDS011;55463;52.324;5.122;2024-03-23T06:21:17;11.73;;;2.70;;
67274;SDS011;55463;52.324;5.122;2024-03-23T06:23:43;10.25;;;3.30;;
67274;SDS011;55463;52.324;5.122;2024-03-23T06:26:13;15.65;;;2.88;;
67274;SDS011;55463;52.324;5.122;2024-03-23T06:28:38;16.25;;;3.35;;
67274;SDS011;55463;52.324;5.122;2024-03-23T06:31:08;12.77;;;3.03;;
67274;SDS011;55463;52.324;5.122;2024-03-23T06:33:34;20.15;;;3.95;;
67274;SDS011;55463;52.324;5.122;2024-03-23T06:36:00;19.48;;;3.35;;
67274;SDS011;55463;52.324;5.122;2024-03-23T06:38:25;14.05;;;3.53;;
67274;SDS011;55463;52.324;5.122;2024-03-23T06:40:50;12.52;;;3.50;;
67274;SDS011;55463;52.324;5.122;2024-03-23T06:43:17;11.85;;;3.58;;
67274;SDS011;55463;52.324;5.122;2024-03-23T06:45:43;12.38;;;3.30;;
67274;SDS011;55463;52.324;5.122;2024-03-23T06:48:09;17.67;;;4.00;;
67274;SDS011;55463;52.324;5.122;2024-03-23T06:50:34;10.68;;;3.97;;
67274;SDS011;55463;52.324;5.122;2024-03-23T06:53:00;14.50;;;3.33;;
67274;SDS011;55463;52.324;5.122;2024-03-23T06:55:27;18.52;;;4.65;;
67274;SDS011;55463;52.324;5.122;2024-03-23T06:57:53;15.95;;;3.63;;
67274;SDS011;55463;52.324;5.122;2024-03-23T07:00:18;13.70;;;3.75;;
67274;SDS011;55463;52.324;5.122;2024-03-23T07:02:44;13.35;;;3.38;;
67274;SDS011;55463;52.324;5.122;2024-03-23T07:05:10;16.70;;;3.63;;
67274;SDS011;55463;52.324;5.122;2024-03-23T07:07:36;15.15;;;3.47;;
67274;SDS011;55463;52.324;5.122;2024-03-23T07:10:03;14.98;;;3.50;;
67274;SDS011;55463;52.324;5.122;2024-03-23T07:12:29;21.50;;;3.53;;
67274;SDS011;55463;52.324;5.122;2024-03-23T07:14:55;19.25;;;3.25;;
67274;SDS011;55463;52.324;5.122;2024-03-23T07:17:20;17.05;;;3.42;;
67274;SDS011;55463;52.324;5.122;2024-03-23T07:19:46;10.40;;;3.45;;
67274;SDS011;55463;52.324;5.122;2024-03-23T07:22:11;17.75;;;3.20;;
67274;SDS011;55463;52.324;5.122;2024-03-23T07:24:36;14.98;;;2.97;;
67274;SDS011;55463;52.324;5.122;2024-03-23T07:27:04;13.93;;;2.70;;
67274;SDS011;55463;52.324;5.122;2024-03-23T07:29:29;20.38;;;3.65;;
67274;SDS011;55463;52.324;5.122;2024-03-23T07:31:55;18.55;;;3.28;;
67274;SDS011;55463;52.324;5.122;2024-03-23T07:34:20;12.43;;;3.00;;
67274;SDS011;55463;52.324;5.122;2024-03-23T07:36:46;12.38;;;2.67;;
67274;SDS011;55463;52.324;5.122;2024-03-23T07:39:11;18.15;;;3.00;;
67274;SDS011;55463;52.324;5.122;2024-03-23T07:41:37;20.45;;;3.05;;
67274;SDS011;55463;52.324;5.122;2024-03-23T07:44:02;14.65;;;2.58;;
67274;SDS011;55463;52.324;5.122;2024-03-23T07:46:28;12.90;;;3.05;;
67274;SDS011;55463;52.324;5.122;2024-03-23T07:48:53;15.02;;;2.70;;
67274;SDS011;55463;52.324;5.122;2024-03-23T07:51:22;14.98;;;2.72;;
67274;SDS011;55463;52.324;5.122;2024-03-23T07:53:48;15.98;;;3.72;;
67274;SDS011;55463;52.324;5.122;2024-03-23T07:56:14;14.35;;;3.05;;
67274;SDS011;55463;52.324;5.122;2024-03-23T07:58:40;12.98;;;3.00;;
67274;SDS011;55463;52.324;5.122;2024-03-23T08:01:06;15.65;;;2.75;;
67274;SDS011;55463;52.324;5.122;2024-03-23T08:03:45;10.90;;;2.40;;
67274;SDS011;55463;52.324;5.122;2024-03-23T08:06:12;11.73;;;2.30;;
67274;SDS011;55463;52.324;5.122;2024-03-23T08:08:52;17.73;;;2.95;;
67274;SDS011;55463;52.324;5.122;2024-03-23T08:11:25;10.65;;;2.63;;
67274;SDS011;55463;52.324;5.122;2024-03-23T08:13:51;13.43;;;3.00;;
67274;SDS011;55463;52.324;5.122;2024-03-23T08:16:17;12.68;;;2.55;;
67274;SDS011;55463;52.324;5.122;2024-03-23T08:18:42;15.63;;;2.72;;
67274;SDS011;55463;52.324;5.122;2024-03-23T08:21:08;18.13;;;2.58;;
67274;SDS011;55463;52.324;5.122;2024-03-23T08:23:34;13.02;;;2.85;;
67274;SDS011;55463;52.324;5.122;2024-03-23T08:26:03;20.42;;;3.25;;
67274;SDS011;55463;52.324;5.122;2024-03-23T08:28:29;14.63;;;2.25;;
67274;SDS011;55463;52.324;5.122;2024-03-23T08:30:55;8.90;;;2.83;;
67274;SDS011;55463;52.324;5.122;2024-03-23T08:33:22;15.75;;;2.53;;
67274;SDS011;55463;52.324;5.122;2024-03-23T08:35:54;13.48;;;2.10;;
67274;SDS011;55463;52.324;5.122;2024-03-23T08:38:27;10.82;;;2.30;;
67274;SDS011;55463;52.324;5.122;2024-03-23T08:40:57;12.48;;;3.03;;
67274;SDS011;55463;52.324;5.122;2024-03-23T08:43:23;17.75;;;2.60;;
67274;SDS011;55463;52.324;5.122;2024-03-23T08:45:48;10.57;;;2.45;;
67274;SDS011;55463;52.324;5.122;2024-03-23T08:48:14;12.55;;;2.35;;
67274;SDS011;55463;52.324;5.122;2024-03-23T08:50:39;7.82;;;2.35;;
67274;SDS011;55463;52.324;5.122;2024-03-23T08:53:05;13.98;;;2.33;;
67274;SDS011;55463;52.324;5.122;2024-03-23T08:55:30;10.93;;;2.67;;
67274;SDS011;55463;52.324;5.122;2024-03-23T08:57:55;13.73;;;2.70;;
67274;SDS011;55463;52.324;5.122;2024-03-23T09:00:21;14.35;;;2.40;;
67274;SDS011;55463;52.324;5.122;2024-03-23T09:02:47;6.95;;;1.90;;
67274;SDS011;55463;52.324;5.122;2024-03-23T09:05:13;12.18;;;2.30;;
67274;SDS011;55463;52.324;5.122;2024-03-23T09:07:39;8.35;;;2.42;;
67274;SDS011;55463;52.324;5.122;2024-03-23T09:10:04;11.65;;;2.42;;
67274;SDS011;55463;52.324;5.122;2024-03-23T09:12:30;6.20;;;1.90;;
67274;SDS011;55463;52.324;5.122;2024-03-23T09:14:55;10.70;;;2.03;;
67274;SDS011;55463;52.324;5.122;2024-03-23T09:17:20;11.95;;;2.50;;
67274;SDS011;55463;52.324;5.122;2024-03-23T09:19:46;15.77;;;3.45;;
67274;SDS011;55463;52.324;5.122;2024-03-23T09:22:11;9.30;;;2.25;;
67274;SDS011;55463;52.324;5.122;2024-03-23T09:24:38;8.57;;;1.98;;
67274;SDS011;55463;52.324;5.122;2024-03-23T09:27:03;15.60;;;2.80;;
67274;SDS011;55463;52.324;5.122;2024-03-23T09:29:29;12.25;;;2.60;;
67274;SDS011;55463;52.324;5.122;2024-03-23T09:31:54;13.90;;;2.70;;
67274;SDS011;55463;52.324;5.122;2024-03-23T09:34:20;22.52;;;3.80;;
67274;SDS011;55463;52.324;5.122;2024-03-23T09:36:45;19.50;;;3.00;;
67274;SDS011;55463;52.324;5.122;2024-03-23T09:39:10;16.42;;;2.67;;
67274;SDS011;55463;52.324;5.122;2024-03-23T09:41:36;15.32;;;3.30;;
67274;SDS011;55463;52.324;5.122;2024-03-23T09:44:01;10.63;;;2.38;;
67274;SDS011;55463;52.324;5.122;2024-03-23T09:46:27;17.95;;;4.47;;
67274;SDS011;55463;52.324;5.122;2024-03-23T09:48:53;13.68;;;2.63;;
67274;SDS011;55463;52.324;5.122;2024-03-23T09:51:20;13.95;;;2.70;;
67274;SDS011;55463;52.324;5.122;2024-03-23T09:53:46;10.73;;;2.85;;
67274;SDS011;55463;52.324;5.122;2024-03-23T09:56:11;13.63;;;2.85;;
67274;SDS011;55463;52.324;5.122;2024-03-23T09:58:37;14.90;;;2.78;;
67274;SDS011;55463;52.324;5.122;2024-03-23T10:01:02;16.40;;;3.10;;
67274;SDS011;55463;52.324;5.122;2024-03-23T10:03:28;14.95;;;2.63;;
67274;SDS011;55463;52.324;5.122;2024-03-23T10:06:03;19.02;;;2.55;;
67274;SDS011;55463;52.324;5.122;2024-03-23T10:08:30;6.63;;;2.30;;
67274;SDS011;55463;52.324;5.122;2024-03-23T10:10:56;23.00;;;3.05;;
67274;SDS011;55463;52.324;5.122;2024-03-23T10:13:25;13.98;;;3.55;;
67274;SDS011;55463;52.324;5.122;2024-03-23T10:15:57;8.65;;;2.50;;
67274;SDS011;55463;52.324;5.122;2024-03-23T10:18:24;10.50;;;2.20;;
67274;SDS011;55463;52.324;5.122;2024-03-23T10:23:30;12.65;;;2.80;;
67274;SDS011;55463;52.324;5.122;2024-03-23T10:26:11;15.32;;;2.60;;
67274;SDS011;55463;52.324;5.122;2024-03-23T10:28:52;15.18;;;2.33;;
67274;SDS011;55463;52.324;5.122;2024-03-23T10:31:28;10.63;;;2.60;;
67274;SDS011;55463;52.324;5.122;2024-03-23T10:33:54;11.60;;;2.38;;
67274;SDS011;55463;52.324;5.122;2024-03-23T10:36:20;12.13;;;2.72;;
67274;SDS011;55463;52.324;5.122;2024-03-23T10:38:51;14.05;;;2.72;;
67274;SDS011;55463;52.324;5.122;2024-03-23T10:41:17;21.92;;;3.00;;
67274;SDS011;55463;52.324;5.122;2024-03-23T10:43:44;12.80;;;2.10;;
67274;SDS011;55463;52.324;5.122;2024-03-23T10:46:11;12.43;;;2.53;;
67274;SDS011;55463;52.324;5.122;2024-03-23T10:48:37;8.95;;;2.95;;
67274;SDS011;55463;52.324;5.122;2024-03-23T10:51:03;8.60;;;2.30;;
67274;SDS011;55463;52.324;5.122;2024-03-23T10:53:29;15.95;;;2.50;;
67274;SDS011;55463;52.324;5.122;2024-03-23T10:55:57;10.20;;;2.10;;
67274;SDS011;55463;52.324;5.122;2024-03-23T10:58:25;10.55;;;2.17;;
67274;SDS011;55463;52.324;5.122;2024-03-23T11:00:53;12.32;;;2.42;;
67274;SDS011;55463;52.324;5.122;2024-03-23T11:03:52;11.13;;;2.30;;
67274;SDS011;55463;52.324;5.122;2024-03-23T11:06:12;12.10;;;3.65;;
67274;SDS011;55463;52.324;5.122;2024-03-23T11:09:00;11.93;;;2.58;;
67274;SDS011;55463;52.324;5.122;2024-03-23T11:11:26;15.50;;;2.60;;
67274;SDS011;55463;52.324;5.122;2024-03-23T11:13:53;12.02;;;2.70;;
67274;SDS011;55463;52.324;5.122;2024-03-23T11:16:26;15.60;;;2.30;;
67274;SDS011;55463;52.324;5.122;2024-03-23T11:18:53;10.85;;;2.33;;
67274;SDS011;55463;52.324;5.122;2024-03-23T11:24:17;10.82;;;2.20;;
67274;SDS011;55463;52.324;5.122;2024-03-23T11:26:43;13.65;;;2.47;;
67274;SDS011;55463;52.324;5.122;2024-03-23T11:29:12;12.85;;;2.55;;
67274;SDS011;55463;52.324;5.122;2024-03-23T11:31:45;12.95;;;3.05;;
67274;SDS011;55463;52.324;5.122;2024-03-23T11:34:11;10.82;;;2.53;;
67274;SDS011;55463;52.324;5.122;2024-03-23T11:36:37;13.52;;;2.67;;
67274;SDS011;55463;52.324;5.122;2024-03-23T11:39:17;10.40;;;2.08;;
67274;SDS011;55463;52.324;5.122;2024-03-23T11:41:50;10.23;;;2.25;;
67274;SDS011;55463;52.324;5.122;2024-03-23T11:44:22;8.18;;;1.90;;
67274;SDS011;55463;52.324;5.122;2024-03-23T11:46:49;17.20;;;2.70;;
67274;SDS011;55463;52.324;5.122;2024-03-23T11:49:22;7.88;;;2.25;;
67274;SDS011;55463;52.324;5.122;2024-03-23T11:51:48;17.45;;;2.83;;
67274;SDS011;55463;52.324;5.122;2024-03-23T11:54:13;10.05;;;2.38;;
67274;SDS011;55463;52.324;5.122;2024-03-23T11:56:39;9.43;;;2.35;;
67274;SDS011;55463;52.324;5.122;2024-03-23T11:59:04;9.18;;;2.20;;
67274;SDS011;55463;52.324;5.122;2024-03-23T12:01:29;11.18;;;2.38;;
67274;SDS011;55463;52.324;5.122;2024-03-23T12:03:56;15.82;;;2.70;;
67274;SDS011;55463;52.324;5.122;2024-03-23T12:06:21;14.80;;;2.75;;
67274;SDS011;55463;52.324;5.122;2024-03-23T12:08:46;7.60;;;2.15;;
67274;SDS011;55463;52.324;5.122;2024-03-23T12:11:16;9.60;;;2.10;;
67274;SDS011;55463;52.324;5.122;2024-03-23T12:13:44;11.75;;;2.42;;
67274;SDS011;55463;52.324;5.122;2024-03-23T12:16:18;13.57;;;2.70;;
67274;SDS011;55463;52.324;5.122;2024-03-23T12:18:46;7.43;;;2.03;;
67274;SDS011;55463;52.324;5.122;2024-03-23T12:21:12;5.35;;;1.40;;
67274;SDS011;55463;52.324;5.122;2024-03-23T12:23:41;6.80;;;1.80;;
67274;SDS011;55463;52.324;5.122;2024-03-23T12:26:11;5.38;;;1.83;;
67274;SDS011;55463;52.324;5.122;2024-03-23T12:28:37;5.50;;;1.98;;
67274;SDS011;55463;52.324;5.122;2024-03-23T12:31:03;7.90;;;1.70;;
67274;SDS011;55463;52.324;5.122;2024-03-23T12:33:28;7.32;;;1.80;;
67274;SDS011;55463;52.324;5.122;2024-03-23T12:35:54;8.48;;;1.75;;
67274;SDS011;55463;52.324;5.122;2024-03-23T12:38:19;9.40;;;1.88;;
67274;SDS011;55463;52.324;5.122;2024-03-23T12:40:50;8.02;;;1.70;;
67274;SDS011;55463;52.324;5.122;2024-03-23T12:43:17;6.75;;;1.60;;
67274;SDS011;55463;52.324;5.122;2024-03-23T12:45:46;11.23;;;2.15;;
67274;SDS011;55463;52.324;5.122;2024-03-23T12:48:15;11.70;;;2.63;;
67274;SDS011;55463;52.324;5.122;2024-03-23T12:50:41;13.07;;;2.40;;
67274;SDS011;55463;52.324;5.122;2024-03-23T12:53:06;8.32;;;2.30;;
67274;SDS011;55463;52.324;5.122;2024-03-23T12:55:34;10.77;;;2.20;;
67274;SDS011;55463;52.324;5.122;2024-03-23T12:58:00;8.73;;;1.90;;
67274;SDS011;55463;52.324;5.122;2024-03-23T13:00:25;8.98;;;2.10;;
67274;SDS011;55463;52.324;5.122;2024-03-23T13:02:50;12.32;;;2.38;;
67274;SDS011;55463;52.324;5.122;2024-03-23T13:05:16;12.63;;;2.75;;
67274;SDS011;55463;52.324;5.122;2024-03-23T13:07:41;13.32;;;2.53;;
67274;SDS011;55463;52.324;5.122;2024-03-23T13:10:07;11.10;;;2.50;;
67274;SDS011;55463;52.324;5.122;2024-03-23T13:12:33;8.40;;;2.10;;
67274;SDS011;55463;52.324;5.122;2024-03-23T13:14:59;10.30;;;2.05;;
67274;SDS011;55463;52.324;5.122;2024-03-23T13:17:28;12.70;;;2.20;;
67274;SDS011;55463;52.324;5.122;2024-03-23T13:19:54;8.23;;;1.77;;
67274;SDS011;55463;52.324;5.122;2024-03-23T13:22:20;6.35;;;1.92;;
67274;SDS011;55463;52.324;5.122;2024-03-23T13:24:46;10.68;;;1.58;;
67274;SDS011;55463;52.324;5.122;2024-03-23T13:27:11;4.68;;;1.70;;
67274;SDS011;55463;52.324;5.122;2024-03-23T13:29:37;4.97;;;1.30;;
67274;SDS011;55463;52.324;5.122;2024-03-23T13:32:03;5.72;;;1.50;;
67274;SDS011;55463;52.324;5.122;2024-03-23T13:34:28;12.38;;;1.75;;
67274;SDS011;55463;52.324;5.122;2024-03-23T13:36:54;8.57;;;2.22;;
67274;SDS011;55463;52.324;5.122;2024-03-23T13:39:21;7.57;;;1.75;;
67274;SDS011;55463;52.324;5.122;2024-03-23T13:41:46;11.15;;;2.10;;
67274;SDS011;55463;52.324;5.122;2024-03-23T13:44:12;7.93;;;1.80;;
67274;SDS011;55463;52.324;5.122;2024-03-23T13:46:39;11.30;;;2.47;;
67274;SDS011;55463;52.324;5.122;2024-03-23T13:49:07;8.35;;;2.00;;
67274;SDS011;55463;52.324;5.122;2024-03-23T13:51:40;13.87;;;2.87;;
67274;SDS011;55463;52.324;5.122;2024-03-23T13:54:11;15.55;;;2.50;;
67274;SDS011;55463;52.324;5.122;2024-03-23T13:56:37;8.82;;;2.78;;
67274;SDS011;55463;52.324;5.122;2024-03-23T13:59:02;10.48;;;2.50;;
67274;SDS011;55463;52.324;5.122;2024-03-23T14:01:28;9.80;;;1.88;;
67274;SDS011;55463;52.324;5.122;2024-03-23T14:03:53;11.57;;;2.83;;
67274;SDS011;55463;52.324;5.122;2024-03-23T14:06:20;7.90;;;2.20;;
67274;SDS011;55463;52.324;5.122;2024-03-23T14:08:46;8.18;;;2.08;;
67274;SDS011;55463;52.324;5.122;2024-03-23T14:11:11;8.30;;;2.10;;
67274;SDS011;55463;52.324;5.122;2024-03-23T14:13:37;8.40;;;2.22;;
67274;SDS011;55463;52.324;5.122;2024-03-23T14:16:02;13.85;;;3.20;;
67274;SDS011;55463;52.324;5.122;2024-03-23T14:18:28;13.10;;;2.28;;
67274;SDS011;55463;52.324;5.122;2024-03-23T14:21:00;5.03;;;1.58;;
67274;SDS011;55463;52.324;5.122;2024-03-23T14:23:29;12.82;;;2.53;;
67274;SDS011;55463;52.324;5.122;2024-03-23T14:25:58;8.77;;;1.70;;
67274;SDS011;55463;52.324;5.122;2024-03-23T14:28:24;10.15;;;2.00;;
67274;SDS011;55463;52.324;5.122;2024-03-23T14:30:50;6.78;;;1.90;;
67274;SDS011;55463;52.324;5.122;2024-03-23T14:33:16;13.75;;;2.60;;
67274;SDS011;55463;52.324;5.122;2024-03-23T14:35:43;6.90;;;1.75;;
67274;SDS011;55463;52.324;5.122;2024-03-23T14:38:09;8.18;;;2.53;;
67274;SDS011;55463;52.324;5.122;2024-03-23T14:40:34;10.73;;;2.38;;
67274;SDS011;55463;52.324;5.122;2024-03-23T14:43:00;8.07;;;2.30;;
67274;SDS011;55463;52.324;5.122;2024-03-23T14:45:26;11.95;;;2.33;;
67274;SDS011;55463;52.324;5.122;2024-03-23T14:47:51;7.78;;;1.80;;
67274;SDS011;55463;52.324;5.122;2024-03-23T14:50:17;6.22;;;1.70;;
67274;SDS011;55463;52.324;5.122;2024-03-23T14:52:46;5.70;;;2.00;;
67274;SDS011;55463;52.324;5.122;2024-03-23T14:55:12;10.63;;;1.95;;
67274;SDS011;55463;52.324;5.122;2024-03-23T14:57:38;7.20;;;2.10;;
67274;SDS011;55463;52.324;5.122;2024-03-23T15:00:09;10.90;;;2.00;;
67274;SDS011;55463;52.324;5.122;2024-03-23T15:02:39;9.82;;;2.03;;
67274;SDS011;55463;52.324;5.122;2024-03-23T15:05:05;12.90;;;2.58;;
67274;SDS011;55463;52.324;5.122;2024-03-23T15:07:35;8.13;;;2.42;;
67274;SDS011;55463;52.324;5.122;2024-03-23T15:10:01;9.65;;;1.67;;
67274;SDS011;55463;52.324;5.122;2024-03-23T15:12:29;9.02;;;2.67;;
67274;SDS011;55463;52.324;5.122;2024-03-23T15:14:54;9.90;;;2.30;;
67274;SDS011;55463;52.324;5.122;2024-03-23T15:17:20;10.88;;;2.42;;
67274;SDS011;55463;52.324;5.122;2024-03-23T15:19:45;10.07;;;2.20;;
67274;SDS011;55463;52.324;5.122;2024-03-23T15:22:11;11.60;;;2.13;;
67274;SDS011;55463;52.324;5.122;2024-03-23T15:24:36;7.70;;;2.00;;
67274;SDS011;55463;52.324;5.122;2024-03-23T15:27:02;9.50;;;2.75;;
67274;SDS011;55463;52.324;5.122;2024-03-23T15:29:28;7.10;;;2.00;;
67274;SDS011;55463;52.324;5.122;2024-03-23T15:31:54;6.40;;;1.95;;